• Join FlightAware (Why Join?)
  • Login
  • US Flag 
12:14PM EDT


 

Airport Tracker/Info


-or-


 

Live Flight TrackerFlight Track Log ✈ TAM3241 ✈ 17-Jun-2013 ✈ SBUL / UDI - SBSP / CGH

Flight Track Log - Related Links

Times and Time Zones

All times are in EDT time to prevent confusion due to time zone crossing. See the TAM3241 flight status page for this flight to view local times or setup timezone preferences in your user account.

Time Position Orientation Groundspeed Altitude Reporting Facility
EDT Latitude Longitude Course Direction KTS MPH feet Rate Location/Type
02:42PM -20.2382 -47.7875 163° South  Level Estimated
02:43PM -20.3229 -47.7599 163° South  Level Estimated
02:44PM -20.4076 -47.7322 163° South  Level Estimated
02:45PM -20.4923 -47.7046 163° South  Level Estimated
02:46PM -20.5769 -47.6768 163° South  Level Estimated
02:47PM -20.6616 -47.6491 163° South  Level Estimated
02:48PM -20.7462 -47.6213 163° South  Level Estimated
02:49PM -20.8309 -47.5935 163° South  Level Estimated
02:50PM -20.9155 -47.5657 163° South  Level Estimated
02:51PM -21.0002 -47.5378 163° South  Level Estimated
02:52PM -21.0848 -47.5099 163° South  Level Estimated
02:53PM -21.1694 -47.4819 163° South  Level Estimated
02:54PM -21.2541 -47.4540 163° South  Level Estimated
02:55PM -21.3387 -47.4260 163° South  Level Estimated
02:56PM -21.4233 -47.3979 163° South  Level Estimated
02:57PM -21.5079 -47.3699 163° South  Level Estimated
02:58PM -21.5925 -47.3418 163° South  Level Estimated
02:59PM -21.6771 -47.3136 163° South  Level Estimated
03:00PM -21.7617 -47.2855 163° South  Level Estimated
03:01PM -21.8463 -47.2573 163° South  Level Estimated
03:02PM -21.9309 -47.2290 163° South  Level Estimated
03:03PM -22.0155 -47.2008 163° South  Level Estimated
03:04PM -22.1001 -47.1725 163° South  Level Estimated
03:05PM -22.1847 -47.1441 163° South  Level Estimated
03:06PM -22.2692 -47.1158 163° South  Level Estimated
03:07PM -22.3538 -47.0874 163° South  Level Estimated
03:08PM -22.4384 -47.0589 163° South  Level Estimated
03:09PM -22.5229 -47.0304 163° South  Level Estimated
03:10PM -22.6075 -47.0019 163° South  Level Estimated
03:11PM -22.6920 -46.9734 163° South  Level Estimated
03:12PM -22.7766 -46.9448 163° South  Level Estimated
03:13PM -22.8611 -46.9162 163° South  Level Estimated
03:14PM -22.9456 -46.8876 163° South  Level Estimated
03:15PM -23.0301 -46.8589 163° South  Level Estimated
03:16PM -23.1147 -46.8302 163° South  Level Estimated
03:17PM -23.1992 -46.8014 163° South  Level Estimated
03:18PM -23.2837 -46.7726 163° South  Level Estimated
03:19PM -23.3682 -46.7438 163° South  Level Estimated
03:20PM -23.4527 -46.7149 163° South  Level Estimated
03:21PM -23.5372 -46.6860 163° South  Level Estimated
03:22PM -23.6217 -46.6571 163° South  Level Estimated
03:23PM -23.6267 -46.6554 163° South  Level Estimated
03:24PM -23.6267 -46.6554 114° Southeast  Level Estimated
03:25PM -23.6267 -46.6554 114° Southeast  Level Estimated
03:26PM -23.6267 -46.6554 114° Southeast  Level Estimated
03:27PM -23.6267 -46.6554 114° Southeast  Level Estimated
03:28PM -23.6267 -46.6554 114° Southeast  Level Estimated
03:29PM -23.6267 -46.6554 114° Southeast  Level Estimated
03:30PM -23.6267 -46.6554 114° Southeast  Level Estimated
03:31PM -23.6267 -46.6554 114° Southeast  Level Estimated